Time;durP1;ratioP1;P1;durP2;ratioP2;P2;SDS_P1;SDS_P2;PMS_P1;PMS_P2;Temp;Humidity;BMP_temperature;BMP_pressure;BME280_temperature;BME280_humidity;BME280_pressure;Samples;Min_cycle;Max_cycle;Signal;HPM_P1;HPM_P2
2022/04/25 00:00:27;;;;;;;3.42;1.35;;;;;;;7.83;72.73;100834.25;10562758;28;20109;-74
2022/04/25 00:05:28;;;;;;;0.00;0.00;;;;;;;7.85;73.35;100831.72;10563160;28;20062;-74
2022/04/25 00:10:30;;;;;;;3.50;2.03;;;;;;;7.71;73.93;100838.91;10580606;28;20547;-73
2022/04/25 00:15:31;;;;;;;9.68;1.90;;;;;;;7.81;73.50;100829.88;10580663;28;20044;-73
2022/04/25 00:20:36;;;;;;;0.40;0.40;;;;;;;7.76;74.09;100837.41;10562224;28;20410;-73
2022/04/25 00:25:37;;;;;;;3.33;1.75;;;;;;;7.72;73.58;100836.44;10580744;28;20498;-73
2022/04/25 00:30:39;;;;;;;2.92;2.03;;;;;;;7.67;74.05;100837.94;10580170;28;20071;-74
2022/04/25 00:35:41;;;;;;;0.00;0.00;;;;;;;7.69;74.55;100836.28;10580747;28;20043;-73
2022/04/25 00:40:43;;;;;;;0.10;0.10;;;;;;;7.80;74.07;100833.25;10579974;28;20044;-74
2022/04/25 00:45:45;;;;;;;0.10;0.10;;;;;;;7.73;74.78;100842.41;10570138;28;20043;-74
2022/04/25 00:50:46;;;;;;;0.85;0.45;;;;;;;7.79;74.46;100842.63;10578402;28;20061;-73
2022/04/25 00:55:49;;;;;;;1.55;0.73;;;;;;;7.68;74.56;100838.81;10580013;28;20070;-73
2022/04/25 01:00:50;;;;;;;0.00;0.00;;;;;;;7.80;74.40;100840.97;10579658;28;20535;-74
2022/04/25 01:05:52;;;;;;;0.00;0.00;;;;;;;7.73;75.82;100842.41;10561319;28;20401;-73
2022/04/25 01:10:55;;;;;;;1.65;1.55;;;;;;;7.63;75.70;100849.75;10560200;28;20047;-73
2022/04/25 01:15:57;;;;;;;0.20;0.20;;;;;;;7.63;76.61;100842.06;10578331;28;20054;-73
2022/04/25 01:21:00;;;;;;;3.20;1.17;;;;;;;7.69;76.02;100840.56;10577884;28;20039;-74
2022/04/25 01:31:21;;;;;;;0.43;0.35;;;;;;;7.55;76.08;100833.25;10577340;28;20092;-74
2022/04/25 01:36:24;;;;;;;1.58;1.00;;;;;;;7.57;76.66;100834.16;10576961;28;20035;-73
2022/04/25 01:41:25;;;;;;;0.15;0.15;;;;;;;7.78;75.87;100843.47;10576552;28;20040;-74
2022/04/25 01:46:27;;;;;;;0.60;0.40;;;;;;;7.73;76.32;100850.09;10577317;28;20368;-73
2022/04/25 01:51:29;;;;;;;0.00;0.00;;;;;;;7.81;76.55;100848.69;10569181;28;20047;-74
2022/04/25 01:56:30;;;;;;;0.20;0.20;;;;;;;7.84;76.73;100846.25;10577287;28;20104;-73
2022/04/25 02:01:32;;;;;;;0.00;0.00;;;;;;;7.87;77.03;100845.50;10561753;28;20035;-73
2022/04/25 02:06:34;;;;;;;2.53;1.02;;;;;;;7.77;77.15;100844.28;10558491;28;20048;-74
2022/04/25 02:11:36;;;;;;;0.00;0.00;;;;;;;7.80;76.64;100834.13;10574559;28;20035;-72
2022/04/25 02:16:38;;;;;;;1.13;0.45;;;;;;;7.85;76.69;100826.59;10574464;28;20073;-73
2022/04/25 02:21:40;;;;;;;0.57;0.57;;;;;;;7.89;77.08;100829.34;10574325;28;20387;-74
2022/04/25 02:26:41;;;;;;;0.00;0.00;;;;;;;7.88;76.54;100829.28;10576157;28;20485;-74
2022/04/25 02:31:43;;;;;;;0.00;0.00;;;;;;;7.80;76.83;100823.00;10575362;28;20077;-74
2022/04/25 02:36:45;;;;;;;0.10;0.10;;;;;;;7.75;77.25;100840.78;10575347;28;20056;-73
2022/04/25 02:41:47;;;;;;;0.10;0.10;;;;;;;7.58;77.93;100833.34;10574808;28;20108;-74
2022/04/25 02:46:49;;;;;;;0.10;0.10;;;;;;;7.46;78.82;100838.88;10577415;28;20175;-74
2022/04/25 02:51:50;;;;;;;0.00;0.00;;;;;;;7.53;78.63;100840.00;10583503;28;20127;-74
2022/04/25 02:56:52;;;;;;;0.43;0.43;;;;;;;7.60;78.39;100836.84;10582896;28;20058;-74
2022/04/25 03:01:53;;;;;;;0.82;0.63;;;;;;;7.61;77.80;100850.53;10583117;28;20048;-74
2022/04/25 03:06:55;;;;;;;0.00;0.00;;;;;;;7.84;77.17;100856.53;10583549;28;20490;-74
2022/04/25 03:11:58;;;;;;;0.00;0.00;;;;;;;7.83;77.88;100859.00;10577363;28;20048;-78
2022/04/25 03:17:01;;;;;;;0.00;0.00;;;;;;;7.96;77.46;100850.97;10565380;28;20051;-78
2022/04/25 03:22:03;;;;;;;3.65;1.77;;;;;;;8.01;77.58;100853.66;10582000;28;20069;-78
2022/04/25 03:27:11;;;;;;;4.47;0.80;;;;;;;8.08;77.56;100851.38;10582456;28;20050;-78
2022/04/25 03:32:13;;;;;;;0.00;0.00;;;;;;;8.21;77.28;100852.69;10581724;28;20498;-79
2022/04/25 03:37:15;;;;;;;0.55;0.55;;;;;;;8.15;77.83;100857.63;10576072;28;20043;-79
2022/04/25 03:42:17;;;;;;;0.28;0.28;;;;;;;8.21;77.39;100856.94;10581181;28;20050;-78
2022/04/25 03:47:18;;;;;;;0.80;0.35;;;;;;;8.28;77.60;100852.91;10581458;28;20078;-78
2022/04/25 03:52:21;;;;;;;0.00;0.00;;;;;;;8.53;76.48;100852.94;10580755;28;20109;-79
2022/04/25 03:57:22;;;;;;;0.00;0.00;;;;;;;8.53;76.83;100858.06;10562489;28;20486;-79
2022/04/25 04:02:24;;;;;;;0.80;0.55;;;;;;;8.47;76.81;100857.00;10581180;28;20146;-77
2022/04/25 04:07:26;;;;;;;0.65;0.65;;;;;;;8.42;77.02;100862.81;10580189;28;20040;-78
2022/04/25 04:12:31;;;;;;;0.00;0.00;;;;;;;8.67;75.77;100857.66;10555955;28;20464;-78
2022/04/25 04:17:35;;;;;;;4.65;1.17;;;;;;;8.60;76.04;100866.00;10569783;28;20134;-78
2022/04/25 04:22:37;;;;;;;0.90;0.90;;;;;;;8.74;75.61;100864.75;10580655;28;20047;-78
2022/04/25 04:27:40;;;;;;;1.33;1.15;;;;;;;8.59;76.14;100877.94;10586525;27;20051;-78
2022/04/25 04:32:41;;;;;;;1.35;1.00;;;;;;;8.57;76.82;100887.28;10580162;28;20059;-78
2022/04/25 04:37:43;;;;;;;3.83;1.30;;;;;;;8.67;75.52;100889.34;10561120;28;20055;-78
2022/04/25 04:42:45;;;;;;;0.13;0.13;;;;;;;8.74;76.51;100890.44;10579138;28;20453;-79
2022/04/25 04:47:46;;;;;;;0.98;0.73;;;;;;;8.78;76.16;100901.69;10578518;28;20096;-78
2022/04/25 04:52:51;;;;;;;0.75;0.22;;;;;;;8.74;75.94;100916.13;10577409;28;20043;-78
2022/04/25 04:57:55;;;;;;;0.10;0.10;;;;;;;8.84;76.23;100919.88;10579785;28;20079;-78
2022/04/25 05:02:57;;;;;;;0.00;0.00;;;;;;;8.81;75.29;100928.34;10577229;28;20050;-78
2022/04/25 05:07:58;;;;;;;3.50;2.15;;;;;;;8.63;75.85;100933.75;10577830;28;20711;-79
2022/04/25 05:13:00;;;;;;;0.65;0.65;;;;;;;8.79;76.16;100935.13;10576974;28;20437;-79
2022/04/25 05:18:02;;;;;;;0.25;0.25;;;;;;;8.79;75.64;100940.25;10578645;28;20128;-78
2022/04/25 05:23:04;;;;;;;0.00;0.00;;;;;;;8.95;75.17;100938.22;10560217;28;20097;-80
2022/04/25 05:28:06;;;;;;;1.30;0.98;;;;;;;8.71;75.81;100952.81;10577466;28;20043;-78
2022/04/25 05:33:08;;;;;;;1.95;0.65;;;;;;;8.82;75.23;100955.78;10577198;28;20040;-79
2022/04/25 05:38:10;;;;;;;0.43;0.43;;;;;;;8.66;76.23;100958.66;10577069;28;20040;-79
2022/04/25 05:43:11;;;;;;;0.00;0.00;;;;;;;8.72;75.67;100969.13;10559527;28;20047;-79
2022/04/25 05:53:33;;;;;;;;;;;;;;;8.34;78.01;100982.31;10575945;27;20073;-76
2022/04/25 05:58:35;;;;;;;17.13;3.65;;;;;;;8.04;79.18;100988.06;10574911;27;19920;-78
2022/04/25 06:03:37;;;;;;;2.28;0.68;;;;;;;8.23;80.31;100987.06;10573769;28;20083;-78
2022/04/25 06:08:38;;;;;;;0.30;0.30;;;;;;;8.04;81.16;100989.78;10605863;27;20039;-78
2022/04/25 06:13:43;;;;;;;0.00;0.00;;;;;;;8.28;80.97;100994.94;10595729;27;20047;-78
2022/04/25 06:18:44;;;;;;;2.67;2.03;;;;;;;8.04;81.53;100993.19;10560273;28;20085;-79
2022/04/25 06:23:48;;;;;;;3.28;2.53;;;;;;;8.01;81.05;101010.16;10571585;28;20047;-81
2022/04/25 06:28:50;;;;;;;1.17;0.73;;;;;;;8.19;81.22;101010.88;10574145;28;20058;-80
2022/04/25 06:33:52;;;;;;;2.35;1.23;;;;;;;8.21;81.23;101022.09;10556577;28;20044;-82
2022/04/25 06:38:53;;;;;;;2.20;1.77;;;;;;;8.25;81.33;101023.06;10558568;28;20118;-82
2022/04/25 06:43:55;;;;;;;1.08;1.08;;;;;;;8.29;81.61;101013.78;10570219;28;20055;-82
2022/04/25 06:54:18;;;;;;;0.35;0.35;;;;;;;8.25;81.95;101034.19;10574930;28;20040;-81
2022/04/25 06:59:21;;;;;;;0.95;0.95;;;;;;;8.36;80.58;101042.31;10572018;28;20039;-80
2022/04/25 07:04:23;;;;;;;8.65;5.13;;;;;;;8.16;80.87;101038.97;10574243;28;20043;-81
2022/04/25 07:09:25;;;;;;;0.82;0.45;;;;;;;8.26;81.41;101035.97;10572492;28;20486;-79
2022/04/25 07:14:28;;;;;;;22.83;8.55;;;;;;;7.83;81.52;101036.88;10574536;28;20518;-79
2022/04/25 07:19:30;;;;;;;13.45;7.57;;;;;;;7.77;81.35;101039.22;10573536;28;20097;-80
2022/04/25 07:29:54;;;;;;;0.30;0.30;;;;;;;8.12;81.23;101052.53;10574072;28;20487;-79
2022/04/25 07:34:56;;;;;;;3.63;2.05;;;;;;;8.06;80.71;101052.28;10579668;28;20140;-81
2022/04/25 07:40:00;;;;;;;7.53;4.05;;;;;;;8.13;80.58;101054.28;10582523;28;20419;-81
2022/04/25 07:45:03;;;;;;;2.20;1.25;;;;;;;8.19;80.03;101059.63;10581441;28;20044;-81
2022/04/25 07:50:05;;;;;;;2.20;0.95;;;;;;;8.32;79.66;101049.81;10580739;28;20043;-80
2022/04/25 07:55:07;;;;;;;0.30;0.30;;;;;;;8.67;79.52;101052.88;10597250;27;20047;-80
2022/04/25 08:00:09;;;;;;;0.00;0.00;;;;;;;8.87;79.58;101061.25;10580738;28;20407;-80
2022/04/25 08:05:13;;;;;;;0.20;0.15;;;;;;;8.94;79.21;101067.50;10580576;28;20112;-80
2022/04/25 08:10:15;;;;;;;10.80;5.88;;;;;;;8.74;78.92;101075.38;10559065;28;20126;-79
2022/04/25 08:20:37;;;;;;;1.35;0.60;;;;;;;9.14;78.58;101092.19;10570674;28;20071;-80
2022/04/25 08:25:40;;;;;;;2.58;2.10;;;;;;;9.02;77.24;101096.91;10562310;28;20043;-79
2022/04/25 08:30:41;;;;;;;3.05;2.00;;;;;;;8.94;77.93;101098.34;10580241;28;20035;-80
2022/04/25 08:35:43;;;;;;;2.38;1.48;;;;;;;9.07;77.78;101100.53;10579827;28;20486;-81
2022/04/25 08:40:48;;;;;;;0.32;0.28;;;;;;;9.42;77.80;101098.28;10579459;28;20470;-80
2022/04/25 08:45:53;;;;;;;28.27;2.38;;;;;;;9.54;76.22;101102.97;10576456;28;20120;-81
2022/04/25 08:50:56;;;;;;;1.30;0.50;;;;;;;9.66;76.11;101105.97;10578705;28;20046;-80
2022/04/25 08:55:59;;;;;;;0.88;0.50;;;;;;;9.44;75.06;101126.63;10578311;28;20075;-80
2022/04/25 09:01:02;;;;;;;1.40;1.30;;;;;;;9.37;75.92;101128.13;10578286;28;20047;-79
2022/04/25 09:06:06;;;;;;;0.80;0.80;;;;;;;9.45;74.99;101138.69;10546677;28;20455;-80
2022/04/25 09:16:28;;;;;;;1.25;0.43;;;;;;;9.42;74.60;101154.84;10578249;28;20043;-79
2022/04/25 09:21:31;;;;;;;0.22;0.17;;;;;;;9.40;75.13;101155.63;10563796;28;20050;-80
2022/04/25 09:26:33;;;;;;;2.25;1.10;;;;;;;9.34;74.24;101157.19;10578394;28;20096;-78
2022/04/25 09:31:35;;;;;;;1.35;0.60;;;;;;;9.47;74.84;101167.88;10577928;28;20175;-79
2022/04/25 09:36:47;;;;;;;1.27;0.93;;;;;;;9.81;73.67;101154.47;10576237;28;20100;-79
2022/04/25 09:41:50;;;;;;;1.55;0.47;;;;;;;9.73;72.57;101171.34;10576573;28;20043;-79
2022/04/25 09:46:51;;;;;;;0.80;0.80;;;;;;;9.69;73.25;101162.63;10576941;28;20317;-78
2022/04/25 09:52:03;;;;;;;0.00;0.00;;;;;;;9.94;73.53;101160.03;10576068;28;20039;-78
2022/04/25 09:57:05;;;;;;;10.75;5.13;;;;;;;9.89;71.84;101162.44;10575986;28;20050;-78
2022/04/25 10:02:07;;;;;;;0.60;0.57;;;;;;;10.16;71.54;101161.56;10574276;28;20494;-79
2022/04/25 10:07:10;;;;;;;1.63;1.52;;;;;;;10.07;70.40;101172.47;10575852;28;20486;-79
2022/04/25 10:12:12;;;;;;;0.35;0.20;;;;;;;10.39;69.07;101180.34;10575455;28;20070;-79
2022/04/25 10:17:15;;;;;;;1.85;1.33;;;;;;;10.28;69.84;101187.72;10575930;28;20126;-78
2022/04/25 10:22:18;;;;;;;2.40;1.95;;;;;;;10.06;69.72;101186.16;10574666;28;20044;-78
2022/04/25 10:27:27;;;;;;;2.83;1.83;;;;;;;9.80;70.72;101193.88;10575732;28;20046;-78
2022/04/25 10:32:29;;;;;;;2.15;0.70;;;;;;;9.83;70.82;101194.00;10575323;28;20051;-78
2022/04/25 10:37:35;;;;;;;0.57;0.55;;;;;;;9.82;70.85;101202.53;10576212;28;20040;-78
2022/04/25 10:49:05;;;;;;;0.75;0.60;;;;;;;9.95;69.76;101208.97;10574906;28;20065;-78
2022/04/25 10:54:08;;;;;;;0.00;0.00;;;;;;;10.20;69.98;101208.91;10574505;28;20093;-78
2022/04/25 10:59:27;;;;;;;0.52;0.52;;;;;;;10.39;69.37;101211.25;10573583;28;20115;-78
2022/04/25 11:04:30;;;;;;;0.43;0.35;;;;;;;10.31;70.08;101208.41;10573543;28;20040;-77
2022/04/25 11:09:41;;;;;;;0.10;0.10;;;;;;;10.51;69.10;101204.75;10580326;28;20059;-78
2022/04/25 11:14:57;;;;;;;2.17;1.63;;;;;;;10.32;69.09;101217.00;10575234;28;20051;-78
2022/04/25 11:19:59;;;;;;;3.08;2.40;;;;;;;10.50;68.72;101213.31;10583010;28;20104;-78
2022/04/25 11:25:22;;;;;;;5.07;2.35;;;;;;;10.11;69.36;101223.22;10582286;28;20104;-78
2022/04/25 11:30:25;;;;;;;13.30;3.20;;;;;;;10.22;69.83;101223.56;10581644;28;20464;-78
2022/04/25 11:35:27;;;;;;;5.05;2.63;;;;;;;10.05;70.27;101233.31;10581612;28;20051;-78
2022/04/25 11:40:29;;;;;;;6.40;1.95;;;;;;;10.36;69.07;101241.16;10581050;28;20043;-77
2022/04/25 11:45:32;;;;;;;2.13;1.45;;;;;;;10.77;68.17;101237.34;10583387;27;20046;-78
2022/04/25 11:50:34;;;;;;;2.38;1.23;;;;;;;10.88;67.70;101237.66;10601177;27;20474;-78
2022/04/25 11:55:36;;;;;;;0.00;0.00;;;;;;;10.90;67.67;101236.00;10568465;28;20048;-78
2022/04/25 12:00:43;;;;;;;1.10;0.70;;;;;;;10.56;69.41;101259.88;10580089;28;20544;-78
2022/04/25 12:05:44;;;;;;;0.00;0.00;;;;;;;11.23;68.38;101244.69;10561348;28;20119;-77
2022/04/25 12:16:18;;;;;;;1.65;0.85;;;;;;;10.51;69.67;101266.59;10590091;27;20051;-78
2022/04/25 12:21:20;;;;;;;0.40;0.35;;;;;;;10.72;70.17;101267.25;10578440;27;20098;-79
2022/04/25 12:26:25;;;;;;;2.20;1.75;;;;;;;10.48;69.45;101265.66;10617056;27;20092;-78
2022/04/25 12:31:27;;;;;;;0.30;0.30;;;;;;;10.63;68.83;101270.44;10599939;27;20073;-78
2022/04/25 12:36:29;;;;;;;0.17;0.17;;;;;;;11.03;68.11;101257.88;10590641;27;20043;-78
2022/04/25 12:41:37;;;;;;;0.00;0.00;;;;;;;11.13;69.18;101255.59;10603905;27;20096;-77
2022/04/25 12:46:40;;;;;;;0.15;0.15;;;;;;;11.35;68.02;101265.69;10603631;27;20469;-80
2022/04/25 12:51:45;;;;;;;2.72;2.10;;;;;;;10.81;67.74;101263.22;10578463;27;20051;-79
2022/04/25 12:56:47;;;;;;;0.00;0.00;;;;;;;11.32;67.25;101267.31;10576968;28;20062;-79
2022/04/25 13:02:01;;;;;;;0.73;0.73;;;;;;;10.96;67.01;101271.41;10576600;28;20044;-80
2022/04/25 13:07:03;;;;;;;0.52;0.22;;;;;;;10.95;67.39;101275.69;10577607;28;20053;-79
2022/04/25 13:12:16;;;;;;;0.77;0.63;;;;;;;11.07;67.73;101270.03;10576462;28;20045;-78
2022/04/25 13:17:18;;;;;;;0.68;0.43;;;;;;;11.52;67.80;101273.00;10576996;28;20116;-79
2022/04/25 13:22:20;;;;;;;2.38;0.20;;;;;;;11.53;66.82;101269.59;10557815;27;20435;-79
2022/04/25 13:27:22;;;;;;;1.17;0.45;;;;;;;11.51;67.98;101268.66;10583198;27;20743;-79
2022/04/25 13:32:23;;;;;;;4.35;2.22;;;;;;;11.38;67.60;101278.66;10574950;28;20047;-78
2022/04/25 13:37:26;;;;;;;7.95;2.88;;;;;;;11.70;66.75;101277.78;10575687;28;20138;-79
2022/04/25 13:42:27;;;;;;;4.63;3.15;;;;;;;11.72;68.42;101276.13;10575018;28;20093;-78
2022/04/25 13:47:29;;;;;;;5.38;1.45;;;;;;;11.98;65.91;101279.44;10577930;27;20043;-79
2022/04/25 13:52:31;;;;;;;11.80;4.70;;;;;;;11.00;67.35;101277.53;10616850;27;20066;-78
2022/04/25 13:57:33;;;;;;;8.07;3.53;;;;;;;11.39;66.95;101277.81;10602042;27;20539;-78
2022/04/25 14:07:55;;;;;;;1.85;1.15;;;;;;;11.89;65.89;101268.84;10593388;27;20031;-77
2022/04/25 14:12:56;;;;;;;1.63;1.00;;;;;;;11.75;65.70;101277.09;10584374;27;20065;-78
2022/04/25 14:17:58;;;;;;;3.97;0.93;;;;;;;11.99;64.89;101270.88;10606212;27;20531;-79
2022/04/25 14:23:01;;;;;;;0.30;0.08;;;;;;;11.71;65.43;101279.56;10610010;27;20035;-78
2022/04/25 14:28:04;;;;;;;4.80;2.28;;;;;;;11.58;65.29;101283.50;10604752;27;20046;-78
2022/04/25 14:33:06;;;;;;;0.05;0.05;;;;;;;11.38;66.78;101286.41;10588620;27;20051;-79
2022/04/25 14:38:08;;;;;;;2.00;1.17;;;;;;;11.07;67.16;101282.91;10576578;27;20080;-77
2022/04/25 14:43:09;;;;;;;10.23;4.47;;;;;;;10.82;68.89;101298.47;10604705;27;20043;-78
2022/04/25 14:48:11;;;;;;;5.88;3.28;;;;;;;11.01;67.12;101290.47;10568209;28;20174;-80
2022/04/25 14:58:33;;;;;;;4.30;1.95;;;;;;;11.38;68.20;101286.41;10601759;27;20070;-78
2022/04/25 15:03:34;;;;;;;12.57;4.43;;;;;;;11.33;66.74;101289.66;10602074;28;20047;-78
2022/04/25 15:08:36;;;;;;;2.78;2.15;;;;;;;11.75;66.62;101291.72;10587440;28;20053;-78
2022/04/25 15:13:38;;;;;;;0.15;0.15;;;;;;;11.95;65.34;101291.38;10572070;28;20042;-79
2022/04/25 15:18:39;;;;;;;1.83;1.50;;;;;;;11.62;65.69;101290.50;10554578;28;20200;-79
2022/04/25 15:23:41;;;;;;;4.82;2.50;;;;;;;11.47;66.24;101308.13;10572034;28;20040;-79
2022/04/25 15:28:43;;;;;;;4.80;2.58;;;;;;;11.13;68.24;101302.00;10554962;28;20055;-78
2022/04/25 15:33:45;;;;;;;5.05;1.60;;;;;;;11.32;67.94;101314.59;10563343;28;20048;-77
2022/04/25 15:38:46;;;;;;;0.10;0.10;;;;;;;11.51;67.90;101322.84;10572507;28;20043;-78
2022/04/25 15:43:49;;;;;;;0.43;0.43;;;;;;;11.38;67.71;101312.19;10573891;28;20052;-74
2022/04/25 15:48:51;;;;;;;0.75;0.43;;;;;;;11.61;67.39;101318.88;10567834;28;20075;-73
2022/04/25 15:59:14;;;;;;;;;;;;;;;11.71;66.89;101326.91;10568987;28;20040;-73
2022/04/25 16:04:15;;;;;;;0.60;0.43;;;;;;;11.69;66.45;101328.56;10581070;28;19920;-74
2022/04/25 16:09:18;;;;;;;2.25;0.52;;;;;;;11.53;67.19;101327.25;10581425;28;20063;-74
2022/04/25 16:14:19;;;;;;;0.35;0.25;;;;;;;11.53;68.10;101331.53;10580308;28;20448;-73
2022/04/25 16:19:21;;;;;;;0.00;0.00;;;;;;;11.65;67.66;101329.31;10588436;27;20051;-74
2022/04/25 16:24:22;;;;;;;0.10;0.10;;;;;;;11.65;68.57;101329.31;10596013;27;20095;-74
2022/04/25 16:29:26;;;;;;;6.47;3.58;;;;;;;11.16;69.42;101320.13;10599985;27;20042;-73
2022/04/25 16:34:28;;;;;;;10.77;4.72;;;;;;;11.01;70.17;101329.16;10599812;27;20573;-73
2022/04/25 16:39:30;;;;;;;1.30;0.73;;;;;;;11.36;69.58;101329.31;10584081;27;20074;-74
2022/04/25 16:44:32;;;;;;;3.13;2.08;;;;;;;11.02;70.18;101323.16;10597145;27;20049;-74
2022/04/25 16:49:36;;;;;;;0.20;0.20;;;;;;;10.95;70.79;101327.25;10592808;27;20045;-74
2022/04/25 16:54:37;;;;;;;2.55;1.23;;;;;;;11.26;70.72;101314.44;10599219;27;20085;-73
2022/04/25 16:59:39;;;;;;;2.50;1.77;;;;;;;11.21;70.28;101318.53;10602050;27;20477;-78
2022/04/25 17:04:40;;;;;;;7.93;4.38;;;;;;;10.95;70.51;101326.38;10586792;27;20043;-78
2022/04/25 17:09:42;;;;;;;0.85;0.85;;;;;;;11.15;70.48;101328.69;10577415;28;20081;-77
2022/04/25 17:14:43;;;;;;;4.00;2.17;;;;;;;10.97;70.49;101324.72;10576420;28;20051;-78
2022/04/25 17:19:46;;;;;;;1.55;1.15;;;;;;;11.02;70.55;101322.31;10576539;28;20498;-77
2022/04/25 17:24:48;;;;;;;1.65;0.70;;;;;;;11.11;70.35;101327.72;10544836;28;20055;-78
2022/04/25 17:29:51;;;;;;;0.47;0.47;;;;;;;10.87;70.11;101338.16;10570683;28;20522;-78
